Dothan, Alabama
Current Conditions -  °F | °C
As of 6:53 AM on Thursday 30 Oct 2014 (Local Time) from KDHN Reporting Station
Clear Clear  
Wind Chill: 55°   Ceiling: Unl
Heat Index: 55°   Visibility: 10mi
Dew Point: 49°   Wind: 5mph
Humidity: 80%   Direction: 10°N
Pressure: 30.08"   Gusts: NA
Location:  31.22°N, 85.39°W
Report Text: KDHN 301153Z 01004KT 10SM CLR 13/09 A3008 RMK AO2 SLP184 T01280094 10178 20128 53007
Loading
Personal Weather Stations






























Interactive Weather Map
Tropical Storm Tracking
New forecast layout! Learn more

10-Day Weather Forecast

Advertisements
Track Severe Weather on mobile